Time;durP1;ratioP1;P1;durP2;ratioP2;P2;SDS_P1;SDS_P2;PMS_P1;PMS_P2;Temp;Humidity;BMP_temperature;BMP_pressure;BME280_temperature;BME280_humidity;BME280_pressure;Samples;Min_cycle;Max_cycle;Signal;HPM_P1;HPM_P2
2021/01/16 00:00:49;;;;;;;17.40;12.20;;;;;;;;;;5038456;28;20178;-67
2021/01/16 00:03:15;;;;;;;18.93;12.60;;;;;;;;;;5027422;28;20696;-67
2021/01/16 00:05:40;;;;;;;18.23;12.23;;;;;;;;;;5028640;28;20354;-67
2021/01/16 00:08:07;;;;;;;19.80;12.33;;;;;;;;;;5030714;28;20673;-68
2021/01/16 00:10:33;;;;;;;16.50;11.87;;;;;;;;;;5032343;28;20197;-68
2021/01/16 00:12:59;;;;;;;18.17;12.57;;;;;;;;;;5012658;28;20213;-68
2021/01/16 00:15:24;;;;;;;18.47;12.27;;;;;;;;;;5036554;28;20532;-68
2021/01/16 00:17:58;;;;;;;18.87;11.73;;;;;;;;;;5018580;28;20208;-68
2021/01/16 00:20:24;;;;;;;18.93;11.60;;;;;;;;;;5028922;28;20172;-67
2021/01/16 00:22:51;;;;;;;18.57;11.87;;;;;;;;;;5031943;28;20713;-68
2021/01/16 00:25:16;;;;;;;17.37;11.33;;;;;;;;;;5030541;28;20224;-68
2021/01/16 00:27:41;;;;;;;15.83;11.23;;;;;;;;;;5014677;28;20656;-67
2021/01/16 00:30:07;;;;;;;19.87;12.50;;;;;;;;;;5029736;28;20623;-68
2021/01/16 00:32:32;;;;;;;18.27;11.97;;;;;;;;;;5032334;28;20217;-68
2021/01/16 00:34:57;;;;;;;18.10;12.00;;;;;;;;;;5030269;28;20182;-68
2021/01/16 00:37:22;;;;;;;17.20;11.37;;;;;;;;;;5032189;28;20235;-68
2021/01/16 00:39:48;;;;;;;17.33;12.30;;;;;;;;;;5034390;28;20632;-68
2021/01/16 00:42:13;;;;;;;18.00;11.40;;;;;;;;;;5029772;28;20184;-69
2021/01/16 00:44:38;;;;;;;15.93;11.03;;;;;;;;;;5027326;28;20186;-68
2021/01/16 00:47:03;;;;;;;21.52;13.55;;;;;;;;;;5011449;28;20178;-68
2021/01/16 00:49:28;;;;;;;14.63;10.83;;;;;;;;;;5028960;28;20275;-68
2021/01/16 00:51:53;;;;;;;16.60;11.50;;;;;;;;;;5030101;28;20184;-66
2021/01/16 00:54:19;;;;;;;16.73;12.50;;;;;;;;;;5034586;28;20225;-68
2021/01/16 00:56:44;;;;;;;19.33;11.80;;;;;;;;;;5030775;28;20169;-68
2021/01/16 00:59:09;;;;;;;16.77;11.87;;;;;;;;;;5027478;28;20178;-67
2021/01/16 01:01:35;;;;;;;16.77;12.03;;;;;;;;;;5032897;28;20194;-67
2021/01/16 01:04:00;;;;;;;15.23;10.47;;;;;;;;;;5032866;28;20852;-68
2021/01/16 01:06:25;;;;;;;14.97;11.43;;;;;;;;;;5033547;28;20248;-68
2021/01/16 01:08:50;;;;;;;17.53;12.30;;;;;;;;;;5034124;28;20699;-68
2021/01/16 01:11:15;;;;;;;18.37;11.97;;;;;;;;;;5051940;28;20177;-68
2021/01/16 01:13:40;;;;;;;21.00;12.37;;;;;;;;;;5040776;28;21396;-68
2021/01/16 01:16:06;;;;;;;18.70;11.30;;;;;;;;;;5016703;28;20187;-68
2021/01/16 01:18:31;;;;;;;15.37;11.30;;;;;;;;;;5031556;28;20190;-68
2021/01/16 01:20:56;;;;;;;17.47;11.60;;;;;;;;;;5035855;28;20180;-67
2021/01/16 01:23:22;;;;;;;14.37;10.50;;;;;;;;;;5033528;28;20770;-67
2021/01/16 01:25:47;;;;;;;16.77;12.00;;;;;;;;;;5030715;28;20178;-67
2021/01/16 01:28:12;;;;;;;17.10;11.83;;;;;;;;;;5040568;28;20651;-68
2021/01/16 01:30:37;;;;;;;15.73;11.03;;;;;;;;;;5033935;28;20181;-67
2021/01/16 01:33:02;;;;;;;16.57;11.63;;;;;;;;;;5031411;28;20707;-67
2021/01/16 01:35:28;;;;;;;18.17;11.43;;;;;;;;;;5030061;28;20198;-68
2021/01/16 01:37:55;;;;;;;17.63;12.17;;;;;;;;;;5033949;28;20694;-67
2021/01/16 01:40:21;;;;;;;22.73;11.37;;;;;;;;;;5031819;28;20190;-68
2021/01/16 01:42:50;;;;;;;17.03;11.40;;;;;;;;;;5031600;28;20205;-67
2021/01/16 01:45:16;;;;;;;18.17;12.57;;;;;;;;;;5036545;28;21039;-67
2021/01/16 01:47:41;;;;;;;18.90;12.07;;;;;;;;;;5035644;28;20186;-67
2021/01/16 01:50:08;;;;;;;16.73;11.83;;;;;;;;;;5031797;28;20566;-68
2021/01/16 01:52:33;;;;;;;19.57;11.77;;;;;;;;;;5016573;28;20323;-68
2021/01/16 01:54:59;;;;;;;17.63;11.90;;;;;;;;;;5034138;28;20192;-67
2021/01/16 01:57:24;;;;;;;18.80;12.17;;;;;;;;;;5032677;28;20718;-67
2021/01/16 01:59:51;;;;;;;16.27;12.17;;;;;;;;;;5034617;28;20711;-68
2021/01/16 02:02:16;;;;;;;17.23;11.50;;;;;;;;;;5036202;28;20273;-68
2021/01/16 02:04:44;;;;;;;19.13;12.17;;;;;;;;;;5033488;28;20224;-67
2021/01/16 02:07:25;;;;;;;20.70;12.53;;;;;;;;;;5035990;28;20192;-68
2021/01/16 02:09:51;;;;;;;18.43;11.93;;;;;;;;;;5040970;28;20210;-68
2021/01/16 02:12:16;;;;;;;18.67;12.13;;;;;;;;;;5040821;28;20270;-68
2021/01/16 02:14:43;;;;;;;18.33;11.73;;;;;;;;;;5037093;28;20189;-68
2021/01/16 02:17:09;;;;;;;18.07;12.73;;;;;;;;;;5030772;28;20183;-68
2021/01/16 02:19:52;;;;;;;17.43;11.73;;;;;;;;;;5030922;28;20181;-67
2021/01/16 02:22:18;;;;;;;15.53;11.27;;;;;;;;;;5032468;28;20606;-67
2021/01/16 02:24:50;;;;;;;16.63;11.53;;;;;;;;;;5032508;28;20189;-68
2021/01/16 02:27:28;;;;;;;16.57;11.63;;;;;;;;;;5016349;28;20173;-66
2021/01/16 02:29:54;;;;;;;18.37;11.47;;;;;;;;;;5038758;28;20177;-66
2021/01/16 02:32:19;;;;;;;17.70;12.13;;;;;;;;;;5036540;28;20180;-66
2021/01/16 02:34:46;;;;;;;17.73;12.13;;;;;;;;;;5039776;28;20184;-66
2021/01/16 02:37:14;;;;;;;17.00;12.03;;;;;;;;;;5014105;28;20205;-66
2021/01/16 02:39:45;;;;;;;19.50;11.60;;;;;;;;;;5020930;28;20412;-66
2021/01/16 02:42:31;;;;;;;16.50;11.30;;;;;;;;;;5034499;28;20667;-69
2021/01/16 02:44:58;;;;;;;19.00;11.67;;;;;;;;;;5022271;28;20193;-70
2021/01/16 02:47:26;;;;;;;15.13;10.77;;;;;;;;;;5036346;28;20178;-66
2021/01/16 02:49:52;;;;;;;15.40;11.23;;;;;;;;;;5036100;28;20182;-69
2021/01/16 02:52:18;;;;;;;16.47;11.90;;;;;;;;;;5033213;28;21861;-69
2021/01/16 02:54:44;;;;;;;17.03;11.87;;;;;;;;;;5033137;28;20212;-66
2021/01/16 02:57:10;;;;;;;17.53;11.87;;;;;;;;;;5032463;28;20178;-66
2021/01/16 02:59:39;;;;;;;19.27;11.87;;;;;;;;;;5032968;28;20174;-66
2021/01/16 03:02:05;;;;;;;18.57;11.73;;;;;;;;;;5035464;28;20182;-66
2021/01/16 03:04:31;;;;;;;17.03;11.93;;;;;;;;;;5016329;28;20217;-67
2021/01/16 03:06:56;;;;;;;18.97;12.27;;;;;;;;;;5032563;28;20215;-68
2021/01/16 03:09:21;;;;;;;17.77;11.70;;;;;;;;;;5030171;28;20210;-67
2021/01/16 03:11:47;;;;;;;17.00;11.77;;;;;;;;;;5032082;28;20219;-66
2021/01/16 03:14:13;;;;;;;14.83;10.77;;;;;;;;;;5033266;28;20217;-67
2021/01/16 03:16:43;;;;;;;17.37;12.00;;;;;;;;;;5031511;28;20535;-67
2021/01/16 03:19:09;;;;;;;17.37;10.83;;;;;;;;;;5030939;28;20185;-67
2021/01/16 03:21:38;;;;;;;15.07;10.70;;;;;;;;;;5036686;28;21214;-69
2021/01/16 03:24:04;;;;;;;16.87;11.10;;;;;;;;;;5029629;28;20213;-67
2021/01/16 03:26:29;;;;;;;16.63;11.30;;;;;;;;;;5036505;28;20193;-67
2021/01/16 03:28:55;;;;;;;13.80;10.77;;;;;;;;;;5032226;28;20190;-67
2021/01/16 03:31:20;;;;;;;16.87;11.90;;;;;;;;;;5017622;28;21685;-69
2021/01/16 03:33:45;;;;;;;14.35;10.55;;;;;;;;;;5030223;28;21006;-66
2021/01/16 03:36:10;;;;;;;16.73;12.00;;;;;;;;;;5029598;28;20231;-66
2021/01/16 03:38:35;;;;;;;14.55;10.30;;;;;;;;;;5030900;28;20757;-65
2021/01/16 03:41:00;;;;;;;15.53;11.10;;;;;;;;;;5032397;28;20666;-68
2021/01/16 03:43:25;;;;;;;14.53;10.00;;;;;;;;;;5031970;28;20205;-66
2021/01/16 03:45:51;;;;;;;17.07;11.77;;;;;;;;;;5028434;28;20394;-66
2021/01/16 03:48:16;;;;;;;15.37;11.13;;;;;;;;;;5030079;28;20180;-65
2021/01/16 03:50:41;;;;;;;16.23;11.73;;;;;;;;;;5031973;28;20247;-68
2021/01/16 03:53:06;;;;;;;17.53;11.97;;;;;;;;;;5014356;28;20217;-66
2021/01/16 03:55:31;;;;;;;16.37;10.60;;;;;;;;;;5027997;28;20238;-68
2021/01/16 03:57:56;;;;;;;14.83;11.00;;;;;;;;;;5029340;28;20185;-66
2021/01/16 04:00:22;;;;;;;16.63;11.50;;;;;;;;;;5038614;28;20274;-68
2021/01/16 04:02:47;;;;;;;17.37;11.73;;;;;;;;;;5028356;28;20205;-67
2021/01/16 04:05:13;;;;;;;16.73;11.67;;;;;;;;;;5029396;28;20204;-68
2021/01/16 04:07:38;;;;;;;13.20;10.33;;;;;;;;;;5032754;28;20936;-68
2021/01/16 04:10:04;;;;;;;15.07;11.57;;;;;;;;;;5030217;28;20635;-68
2021/01/16 04:12:29;;;;;;;14.87;10.87;;;;;;;;;;5030032;28;20209;-68
2021/01/16 04:14:55;;;;;;;16.57;11.40;;;;;;;;;;5015447;28;20849;-68
2021/01/16 04:17:20;;;;;;;14.77;11.00;;;;;;;;;;5030665;28;20178;-68
2021/01/16 04:19:45;;;;;;;15.70;10.80;;;;;;;;;;5035109;28;20174;-69
2021/01/16 04:22:10;;;;;;;13.20;9.63;;;;;;;;;;5034057;28;20548;-68
2021/01/16 04:24:35;;;;;;;16.80;11.27;;;;;;;;;;5026123;28;20628;-65
2021/01/16 04:27:01;;;;;;;14.93;10.27;;;;;;;;;;5027479;28;20251;-66
2021/01/16 04:29:26;;;;;;;16.07;10.53;;;;;;;;;;5026928;28;20189;-66
2021/01/16 04:31:51;;;;;;;15.10;10.20;;;;;;;;;;5038194;28;20609;-66
2021/01/16 04:34:17;;;;;;;15.73;11.43;;;;;;;;;;5013607;28;20735;-65
2021/01/16 04:36:42;;;;;;;16.57;10.53;;;;;;;;;;5029062;28;20177;-67
2021/01/16 04:39:08;;;;;;;16.77;11.23;;;;;;;;;;5032773;28;20209;-66
2021/01/16 04:41:34;;;;;;;16.20;11.50;;;;;;;;;;5037727;28;20178;-66
2021/01/16 04:43:59;;;;;;;16.57;10.77;;;;;;;;;;5018678;28;20208;-66
2021/01/16 04:46:25;;;;;;;16.80;11.10;;;;;;;;;;5020534;28;20240;-66
2021/01/16 04:48:58;;;;;;;15.73;11.10;;;;;;;;;;5035231;28;20189;-66
2021/01/16 04:51:24;;;;;;;15.27;10.23;;;;;;;;;;5033780;28;20219;-66
2021/01/16 04:53:49;;;;;;;16.97;10.27;;;;;;;;;;5035183;28;21857;-66
2021/01/16 04:56:15;;;;;;;13.43;9.87;;;;;;;;;;5043674;28;20536;-66
2021/01/16 04:58:40;;;;;;;16.70;11.03;;;;;;;;;;5035334;28;20265;-66
2021/01/16 05:01:07;;;;;;;13.40;9.60;;;;;;;;;;5036915;28;20264;-68
2021/01/16 05:03:39;;;;;;;14.43;9.70;;;;;;;;;;5036422;28;20230;-68
2021/01/16 05:06:11;;;;;;;16.10;10.23;;;;;;;;;;5037304;28;20635;-68
2021/01/16 05:08:37;;;;;;;16.20;10.93;;;;;;;;;;5034859;28;20273;-67
2021/01/16 05:11:04;;;;;;;12.53;9.30;;;;;;;;;;5037784;28;20185;-68
2021/01/16 05:13:36;;;;;;;13.90;9.80;;;;;;;;;;5037577;28;20631;-68
2021/01/16 05:16:02;;;;;;;15.37;10.30;;;;;;;;;;5035988;28;20793;-68
2021/01/16 05:18:28;;;;;;;14.23;9.70;;;;;;;;;;5034581;28;20182;-68
2021/01/16 05:20:53;;;;;;;16.50;10.40;;;;;;;;;;5041432;28;20656;-68
2021/01/16 05:23:18;;;;;;;13.60;10.50;;;;;;;;;;5035040;28;20225;-68
2021/01/16 05:25:53;;;;;;;13.30;9.77;;;;;;;;;;5036471;28;20268;-68
2021/01/16 05:28:19;;;;;;;13.27;9.97;;;;;;;;;;5036976;28;20185;-68
2021/01/16 05:30:50;;;;;;;14.17;10.03;;;;;;;;;;5040132;28;20239;-68
2021/01/16 05:33:16;;;;;;;13.13;9.20;;;;;;;;;;5036222;28;20242;-67
2021/01/16 05:35:42;;;;;;;14.63;10.03;;;;;;;;;;5038447;28;20635;-68
2021/01/16 05:38:07;;;;;;;14.90;9.43;;;;;;;;;;5033808;28;20178;-68
2021/01/16 05:40:34;;;;;;;13.83;9.40;;;;;;;;;;5032648;28;20192;-68
2021/01/16 05:43:00;;;;;;;13.87;9.50;;;;;;;;;;5020271;28;20209;-68
2021/01/16 05:45:25;;;;;;;15.73;9.90;;;;;;;;;;5035457;28;20189;-68
2021/01/16 05:47:51;;;;;;;14.57;9.43;;;;;;;;;;5033710;28;20174;-68
2021/01/16 05:50:21;;;;;;;13.87;9.03;;;;;;;;;;5020055;28;20677;-68
2021/01/16 05:52:46;;;;;;;13.50;9.50;;;;;;;;;;5031718;28;20217;-69
2021/01/16 05:55:12;;;;;;;12.77;9.30;;;;;;;;;;5034462;28;20182;-70
2021/01/16 05:57:44;;;;;;;14.23;9.30;;;;;;;;;;5031056;28;20667;-68
2021/01/16 06:00:09;;;;;;;14.93;9.63;;;;;;;;;;5034109;28;20184;-68
2021/01/16 06:02:34;;;;;;;15.83;9.07;;;;;;;;;;5031908;28;20205;-66
2021/01/16 06:05:00;;;;;;;11.90;8.13;;;;;;;;;;5031854;28;20228;-68
2021/01/16 06:07:26;;;;;;;13.07;7.80;;;;;;;;;;5030583;28;22064;-66
2021/01/16 06:09:52;;;;;;;13.70;8.73;;;;;;;;;;5032629;28;20232;-67
2021/01/16 06:12:18;;;;;;;12.17;8.27;;;;;;;;;;5030248;28;20180;-66
2021/01/16 06:14:44;;;;;;;15.73;8.23;;;;;;;;;;5031602;28;20186;-66
2021/01/16 06:17:10;;;;;;;12.13;6.90;;;;;;;;;;5030260;28;20182;-68
2021/01/16 06:19:36;;;;;;;10.53;7.10;;;;;;;;;;5033519;28;20182;-68
2021/01/16 06:22:08;;;;;;;11.13;7.73;;;;;;;;;;5037763;28;20262;-68
2021/01/16 06:24:49;;;;;;;10.00;7.07;;;;;;;;;;5031313;28;20256;-67
2021/01/16 06:27:24;;;;;;;15.83;7.73;;;;;;;;;;5030702;28;20236;-68
2021/01/16 06:29:59;;;;;;;11.83;7.90;;;;;;;;;;5034246;28;20204;-68
2021/01/16 06:32:25;;;;;;;9.93;7.10;;;;;;;;;;5032550;28;20599;-68
2021/01/16 06:35:19;;;;;;;11.50;7.30;;;;;;;;;;5034446;28;20220;-67
2021/01/16 06:37:46;;;;;;;11.53;7.17;;;;;;;;;;5011836;28;20251;-68
2021/01/16 06:40:13;;;;;;;11.47;7.70;;;;;;;;;;5012343;28;20254;-68
2021/01/16 06:42:38;;;;;;;11.37;7.60;;;;;;;;;;5031844;28;20209;-68
2021/01/16 06:45:04;;;;;;;11.20;6.97;;;;;;;;;;5029079;28;20178;-67
2021/01/16 06:47:32;;;;;;;11.63;7.67;;;;;;;;;;5031074;28;20182;-68
2021/01/16 06:49:57;;;;;;;11.10;7.33;;;;;;;;;;5032975;28;20204;-68
2021/01/16 06:52:30;;;;;;;12.30;7.93;;;;;;;;;;5030983;28;20659;-68
2021/01/16 06:54:56;;;;;;;12.17;8.77;;;;;;;;;;5041545;28;20177;-68
2021/01/16 06:57:22;;;;;;;11.17;7.17;;;;;;;;;;5003205;28;21447;-68
2021/01/16 06:59:47;;;;;;;13.60;7.67;;;;;;;;;;5042958;28;20173;-68
2021/01/16 07:02:29;;;;;;;12.83;8.57;;;;;;;;;;5051172;28;20185;-67
2021/01/16 07:04:54;;;;;;;12.93;8.33;;;;;;;;;;5042910;28;20257;-68
2021/01/16 07:07:26;;;;;;;14.47;8.27;;;;;;;;;;5045592;28;20257;-68
2021/01/16 07:09:54;;;;;;;14.70;8.77;;;;;;;;;;5031041;28;20639;-68
2021/01/16 07:12:20;;;;;;;12.33;8.33;;;;;;;;;;5030186;28;20949;-68
2021/01/16 07:14:45;;;;;;;12.63;8.47;;;;;;;;;;5021472;28;20200;-67
2021/01/16 07:17:10;;;;;;;12.53;8.27;;;;;;;;;;5030761;28;20173;-67
2021/01/16 07:19:35;;;;;;;11.87;7.93;;;;;;;;;;5028802;28;20201;-68
2021/01/16 07:22:01;;;;;;;13.10;9.13;;;;;;;;;;5031238;28;20178;-68
2021/01/16 07:24:26;;;;;;;12.70;8.30;;;;;;;;;;5014617;28;20217;-66
2021/01/16 07:26:52;;;;;;;13.23;9.23;;;;;;;;;;5031515;28;20186;-65
2021/01/16 07:29:19;;;;;;;14.93;8.90;;;;;;;;;;5029482;28;20201;-68
2021/01/16 07:31:45;;;;;;;12.33;8.13;;;;;;;;;;5032134;28;20185;-66
2021/01/16 07:34:11;;;;;;;15.57;9.20;;;;;;;;;;5033529;28;20217;-66
2021/01/16 07:36:36;;;;;;;13.30;8.47;;;;;;;;;;5032427;28;20177;-67
2021/01/16 07:39:04;;;;;;;14.47;9.77;;;;;;;;;;5029778;28;20276;-67
2021/01/16 07:41:33;;;;;;;13.67;9.10;;;;;;;;;;5030352;28;20186;-66
2021/01/16 07:44:11;;;;;;;13.73;9.30;;;;;;;;;;5033234;28;20238;-66
2021/01/16 07:46:37;;;;;;;15.87;9.87;;;;;;;;;;5032716;28;20255;-67
2021/01/16 07:49:06;;;;;;;18.37;10.77;;;;;;;;;;5033642;28;20190;-67
2021/01/16 07:51:38;;;;;;;14.30;9.40;;;;;;;;;;5032730;28;20199;-67
2021/01/16 07:54:06;;;;;;;15.17;9.67;;;;;;;;;;5027921;28;20213;-66
2021/01/16 07:56:35;;;;;;;12.10;8.87;;;;;;;;;;5034076;28;20189;-67
2021/01/16 07:59:17;;;;;;;14.97;9.30;;;;;;;;;;5028440;28;20704;-67
2021/01/16 08:02:00;;;;;;;15.93;10.10;;;;;;;;;;5033795;28;20182;-67
2021/01/16 08:04:26;;;;;;;15.63;10.07;;;;;;;;;;5039762;28;20201;-67
2021/01/16 08:07:10;;;;;;;15.97;10.07;;;;;;;;;;5030952;28;20667;-67
2021/01/16 08:09:41;;;;;;;16.53;10.63;;;;;;;;;;5029746;28;21571;-68
2021/01/16 08:12:11;;;;;;;17.60;10.57;;;;;;;;;;5027816;28;20227;-67
2021/01/16 08:14:38;;;;;;;15.10;10.63;;;;;;;;;;5029668;28;20256;-67
2021/01/16 08:17:03;;;;;;;15.63;10.80;;;;;;;;;;5033390;28;20187;-66
2021/01/16 08:19:40;;;;;;;16.90;10.47;;;;;;;;;;5030742;28;20189;-67
2021/01/16 08:22:14;;;;;;;16.63;11.40;;;;;;;;;;5032095;28;20246;-68
2021/01/16 08:24:54;;;;;;;16.80;10.00;;;;;;;;;;5031015;28;20275;-67
2021/01/16 08:27:22;;;;;;;14.80;10.13;;;;;;;;;;5012150;28;20208;-67
2021/01/16 08:29:47;;;;;;;14.87;10.13;;;;;;;;;;5029193;28;20278;-68
2021/01/16 08:32:12;;;;;;;14.93;11.30;;;;;;;;;;5032226;28;20177;-68
2021/01/16 08:34:57;;;;;;;15.93;10.90;;;;;;;;;;5027456;28;20647;-67
2021/01/16 08:37:32;;;;;;;16.83;11.10;;;;;;;;;;5028391;28;20651;-67
2021/01/16 08:40:01;;;;;;;19.93;11.80;;;;;;;;;;5029516;28;20316;-67
2021/01/16 08:42:28;;;;;;;16.63;10.83;;;;;;;;;;5031589;28;20209;-67
2021/01/16 08:44:55;;;;;;;16.50;10.50;;;;;;;;;;5030930;28;20182;-67
2021/01/16 08:47:20;;;;;;;19.27;11.37;;;;;;;;;;5028806;28;20190;-67
2021/01/16 08:49:45;;;;;;;19.53;11.03;;;;;;;;;;5029098;28;20177;-68
2021/01/16 08:52:11;;;;;;;16.00;10.90;;;;;;;;;;5028952;28;20713;-67
2021/01/16 08:54:36;;;;;;;15.57;10.63;;;;;;;;;;5027506;28;20214;-68
2021/01/16 08:57:04;;;;;;;18.27;11.43;;;;;;;;;;5030030;28;20236;-67
2021/01/16 08:59:30;;;;;;;18.17;12.37;;;;;;;;;;5028456;28;20192;-67
2021/01/16 09:02:11;;;;;;;17.63;11.10;;;;;;;;;;5028581;28;20182;-68
2021/01/16 09:04:37;;;;;;;19.40;12.07;;;;;;;;;;5033717;28;20761;-68
2021/01/16 09:07:17;;;;;;;15.03;11.03;;;;;;;;;;5027381;28;20181;-68
2021/01/16 09:09:55;;;;;;;17.70;12.17;;;;;;;;;;5028837;28;20690;-68
2021/01/16 09:12:37;;;;;;;20.77;11.87;;;;;;;;;;5031076;28;21198;-67
2021/01/16 09:15:19;;;;;;;19.37;12.20;;;;;;;;;;5027486;28;20185;-67
2021/01/16 09:17:59;;;;;;;20.17;11.77;;;;;;;;;;5028477;28;20181;-67
2021/01/16 09:20:25;;;;;;;16.30;12.20;;;;;;;;;;5037379;28;20190;-67
2021/01/16 09:22:50;;;;;;;19.47;12.20;;;;;;;;;;5027764;28;20597;-68
2021/01/16 09:25:19;;;;;;;20.40;14.10;;;;;;;;;;5031967;28;20180;-67
2021/01/16 09:27:45;;;;;;;18.80;11.73;;;;;;;;;;5013297;28;20181;-67
2021/01/16 09:30:18;;;;;;;20.33;13.10;;;;;;;;;;5036388;28;20185;-67
2021/01/16 09:32:43;;;;;;;19.93;12.80;;;;;;;;;;5031655;28;20213;-67
2021/01/16 09:35:08;;;;;;;21.07;14.67;;;;;;;;;;5032020;28;20173;-67
2021/01/16 09:37:36;;;;;;;20.00;13.63;;;;;;;;;;5031661;28;20677;-67
2021/01/16 09:40:05;;;;;;;18.03;12.43;;;;;;;;;;5032182;28;20177;-67
2021/01/16 09:42:30;;;;;;;19.50;13.23;;;;;;;;;;5033974;28;20236;-67
2021/01/16 09:44:56;;;;;;;20.17;12.90;;;;;;;;;;5032834;28;22148;-68
2021/01/16 09:47:27;;;;;;;19.27;12.50;;;;;;;;;;5032144;28;20532;-68
2021/01/16 09:49:52;;;;;;;21.43;14.47;;;;;;;;;;5036878;28;20200;-68
2021/01/16 09:52:18;;;;;;;17.37;11.87;;;;;;;;;;5032480;28;20663;-68
2021/01/16 09:54:44;;;;;;;19.97;13.40;;;;;;;;;;5017955;28;20294;-68
2021/01/16 09:57:10;;;;;;;22.73;14.10;;;;;;;;;;5031015;28;20213;-67
2021/01/16 09:59:35;;;;;;;18.50;12.73;;;;;;;;;;5030405;28;20648;-67
2021/01/16 10:02:13;;;;;;;21.40;13.50;;;;;;;;;;5033658;28;20190;-68
2021/01/16 10:04:42;;;;;;;19.50;13.23;;;;;;;;;;5031879;28;20178;-67
2021/01/16 10:07:08;;;;;;;21.27;13.63;;;;;;;;;;5033501;28;20186;-67
2021/01/16 10:09:40;;;;;;;18.67;13.23;;;;;;;;;;5031275;28;20300;-68
2021/01/16 10:12:06;;;;;;;21.63;12.83;;;;;;;;;;5030199;28;20189;-67
2021/01/16 10:14:35;;;;;;;20.27;12.30;;;;;;;;;;5022757;28;20688;-67
2021/01/16 10:17:08;;;;;;;17.33;12.70;;;;;;;;;;5023240;28;20320;-67
2021/01/16 10:19:38;;;;;;;19.17;12.90;;;;;;;;;;5030009;28;20556;-67
2021/01/16 10:22:03;;;;;;;20.57;12.17;;;;;;;;;;5020945;28;20189;-66
2021/01/16 10:24:29;;;;;;;16.37;11.77;;;;;;;;;;5032093;28;20213;-71
2021/01/16 10:26:55;;;;;;;19.37;12.93;;;;;;;;;;5039038;28;20377;-70
2021/01/16 10:29:20;;;;;;;19.53;12.53;;;;;;;;;;5031759;28;20748;-70
2021/01/16 10:31:45;;;;;;;20.87;12.70;;;;;;;;;;5032656;28;20185;-68
2021/01/16 10:34:11;;;;;;;20.87;13.33;;;;;;;;;;5034729;28;20237;-68
2021/01/16 10:36:37;;;;;;;20.67;13.80;;;;;;;;;;5035637;28;20235;-68
2021/01/16 10:39:09;;;;;;;17.07;12.30;;;;;;;;;;5037761;28;20179;-68
2021/01/16 10:41:35;;;;;;;18.57;12.37;;;;;;;;;;5034537;28;20276;-67
2021/01/16 10:44:04;;;;;;;20.23;12.97;;;;;;;;;;5036137;28;21067;-68
2021/01/16 10:46:37;;;;;;;20.10;11.97;;;;;;;;;;5029221;28;20182;-68
2021/01/16 10:49:17;;;;;;;18.43;12.50;;;;;;;;;;5037111;28;20530;-67
2021/01/16 10:51:47;;;;;;;15.47;11.47;;;;;;;;;;5032395;28;20207;-68
2021/01/16 10:54:15;;;;;;;22.37;13.17;;;;;;;;;;5032460;28;20311;-68
2021/01/16 10:56:45;;;;;;;18.97;11.50;;;;;;;;;;5020607;28;20312;-68
2021/01/16 10:59:11;;;;;;;20.50;13.87;;;;;;;;;;5033164;28;20226;-68
2021/01/16 11:01:44;;;;;;;24.10;11.83;;;;;;;;;;5037363;28;20595;-68
2021/01/16 11:04:16;;;;;;;19.97;12.93;;;;;;;;;;5033625;28;20237;-69
2021/01/16 11:06:48;;;;;;;20.50;13.83;;;;;;;;;;5033908;28;20677;-68
2021/01/16 11:09:33;;;;;;;19.93;13.00;;;;;;;;;;5033647;28;20182;-68
2021/01/16 11:11:59;;;;;;;30.87;20.57;;;;;;;;;;5038782;28;20181;-68
2021/01/16 11:14:34;;;;;;;24.83;15.27;;;;;;;;;;5031952;28;20224;-68
2021/01/16 11:17:01;;;;;;;24.37;13.23;;;;;;;;;;5039904;28;20185;-68
2021/01/16 11:19:30;;;;;;;14.50;10.97;;;;;;;;;;5035329;28;20194;-68
2021/01/16 11:21:57;;;;;;;15.93;11.10;;;;;;;;;;5040325;28;20556;-68
2021/01/16 11:24:35;;;;;;;15.57;9.87;;;;;;;;;;5038102;28;20218;-68
2021/01/16 11:27:02;;;;;;;17.73;11.47;;;;;;;;;;5034018;28;20181;-68
2021/01/16 11:29:34;;;;;;;15.53;9.93;;;;;;;;;;5036191;28;20238;-67
2021/01/16 11:32:12;;;;;;;15.13;9.17;;;;;;;;;;5034529;28;20201;-68
2021/01/16 11:34:57;;;;;;;12.17;8.03;;;;;;;;;;5035279;28;20586;-67
2021/01/16 11:37:41;;;;;;;14.33;8.40;;;;;;;;;;5029600;28;20349;-68
2021/01/16 11:40:25;;;;;;;11.50;8.30;;;;;;;;;;5031669;28;20217;-68
2021/01/16 11:42:54;;;;;;;12.20;7.30;;;;;;;;;;5034791;28;20543;-68
2021/01/16 11:45:19;;;;;;;11.27;6.90;;;;;;;;;;5040024;28;20178;-68
2021/01/16 11:48:04;;;;;;;10.60;7.13;;;;;;;;;;5030259;28;20669;-68
2021/01/16 11:50:36;;;;;;;10.10;6.63;;;;;;;;;;5033405;28;20216;-68
2021/01/16 11:53:11;;;;;;;9.97;6.67;;;;;;;;;;5031209;28;20287;-68
2021/01/16 11:55:37;;;;;;;10.67;6.67;;;;;;;;;;5040956;28;20203;-67
2021/01/16 11:58:03;;;;;;;8.23;6.57;;;;;;;;;;5039763;28;20178;-68
2021/01/16 12:00:28;;;;;;;9.60;6.17;;;;;;;;;;5037447;28;20193;-67
2021/01/16 12:02:54;;;;;;;10.87;6.43;;;;;;;;;;5034814;28;20201;-67
2021/01/16 12:05:21;;;;;;;9.47;6.50;;;;;;;;;;5032407;28;20570;-67
2021/01/16 12:07:53;;;;;;;12.27;7.03;;;;;;;;;;5029382;28;20204;-68
2021/01/16 12:10:19;;;;;;;9.43;6.37;;;;;;;;;;5028029;28;20198;-68
2021/01/16 12:12:44;;;;;;;8.10;5.77;;;;;;;;;;5034778;28;20205;-67
2021/01/16 12:15:19;;;;;;;8.97;6.63;;;;;;;;;;5044181;28;20674;-68
2021/01/16 12:17:46;;;;;;;12.63;6.57;;;;;;;;;;5029387;28;20236;-68
2021/01/16 12:20:12;;;;;;;8.10;5.87;;;;;;;;;;5039731;28;20180;-68
2021/01/16 12:22:38;;;;;;;8.83;6.40;;;;;;;;;;5031578;28;20218;-68
2021/01/16 12:25:07;;;;;;;10.03;6.60;;;;;;;;;;5023091;28;20185;-68
2021/01/16 12:27:34;;;;;;;9.43;6.20;;;;;;;;;;5028973;28;20187;-67
2021/01/16 12:29:59;;;;;;;8.47;6.53;;;;;;;;;;5029951;28;20614;-67
2021/01/16 12:32:25;;;;;;;10.00;6.23;;;;;;;;;;5031362;28;20862;-68
2021/01/16 12:34:54;;;;;;;10.97;8.10;;;;;;;;;;5038205;28;20210;-67
2021/01/16 12:37:26;;;;;;;13.07;7.83;;;;;;;;;;5029590;28;20790;-67
2021/01/16 12:39:51;;;;;;;14.30;6.90;;;;;;;;;;5029689;28;20186;-66
2021/01/16 12:42:17;;;;;;;9.47;6.50;;;;;;;;;;5029121;28;20193;-67
2021/01/16 12:44:42;;;;;;;11.07;6.73;;;;;;;;;;5027343;28;20186;-67
2021/01/16 12:47:09;;;;;;;8.13;6.23;;;;;;;;;;5033129;28;20664;-66
2021/01/16 12:49:34;;;;;;;8.97;5.97;;;;;;;;;;5032401;28;20177;-67
2021/01/16 12:51:59;;;;;;;10.23;7.30;;;;;;;;;;5031549;28;20177;-67
2021/01/16 12:54:25;;;;;;;8.13;6.33;;;;;;;;;;5027151;28;20216;-67
2021/01/16 12:56:50;;;;;;;8.43;5.93;;;;;;;;;;5027029;28;20718;-67
2021/01/16 12:59:16;;;;;;;7.93;5.03;;;;;;;;;;5031216;28;20170;-68
2021/01/16 13:01:42;;;;;;;7.67;5.60;;;;;;;;;;5041104;28;20181;-68
2021/01/16 13:04:08;;;;;;;8.97;5.50;;;;;;;;;;5034461;28;20219;-67
2021/01/16 13:06:35;;;;;;;7.10;5.97;;;;;;;;;;5040763;28;20177;-68
2021/01/16 13:09:00;;;;;;;7.33;5.23;;;;;;;;;;5037417;28;20186;-67
2021/01/16 13:11:26;;;;;;;8.17;5.20;;;;;;;;;;5035733;28;20177;-67
2021/01/16 13:13:55;;;;;;;9.33;6.03;;;;;;;;;;5033943;28;20213;-68
2021/01/16 13:16:21;;;;;;;7.90;5.73;;;;;;;;;;5038637;28;20170;-68
2021/01/16 13:18:46;;;;;;;10.20;6.17;;;;;;;;;;5036370;28;20236;-68
2021/01/16 13:21:12;;;;;;;13.57;6.70;;;;;;;;;;5036460;28;20173;-68
2021/01/16 13:23:39;;;;;;;10.47;7.23;;;;;;;;;;5036683;28;20206;-68
2021/01/16 13:26:05;;;;;;;11.70;7.47;;;;;;;;;;5036203;28;20208;-67
2021/01/16 13:28:30;;;;;;;12.40;7.27;;;;;;;;;;5035616;28;20185;-68
2021/01/16 13:30:58;;;;;;;10.27;7.03;;;;;;;;;;5036812;28;20265;-68
2021/01/16 13:33:23;;;;;;;13.23;7.70;;;;;;;;;;5035916;28;20220;-67
2021/01/16 13:35:49;;;;;;;11.70;7.53;;;;;;;;;;5045662;28;20165;-67
2021/01/16 13:38:14;;;;;;;10.83;6.47;;;;;;;;;;5043738;28;20556;-68
2021/01/16 13:40:39;;;;;;;10.70;7.50;;;;;;;;;;5033430;28;20186;-67
2021/01/16 13:43:07;;;;;;;11.83;7.33;;;;;;;;;;5017076;28;20208;-68
2021/01/16 13:45:33;;;;;;;12.67;8.20;;;;;;;;;;5037740;28;20182;-67
2021/01/16 13:48:00;;;;;;;9.63;7.27;;;;;;;;;;5033153;28;20268;-67
2021/01/16 13:50:26;;;;;;;12.43;7.50;;;;;;;;;;5034127;28;20182;-68
2021/01/16 13:52:55;;;;;;;11.07;7.50;;;;;;;;;;5034705;28;20240;-68
2021/01/16 13:55:23;;;;;;;12.57;7.50;;;;;;;;;;5034307;28;20630;-68
2021/01/16 13:58:01;;;;;;;12.83;6.47;;;;;;;;;;5040277;28;20177;-68
2021/01/16 14:00:30;;;;;;;13.67;8.50;;;;;;;;;;5040542;28;20213;-68
2021/01/16 14:02:56;;;;;;;12.20;7.17;;;;;;;;;;5045243;28;21190;-68
2021/01/16 14:05:25;;;;;;;11.83;8.03;;;;;;;;;;5041951;28;20177;-67
2021/01/16 14:07:51;;;;;;;12.87;8.27;;;;;;;;;;5032943;28;20267;-67
2021/01/16 14:10:27;;;;;;;16.83;8.80;;;;;;;;;;5034230;28;20174;-68
2021/01/16 14:13:12;;;;;;;13.67;8.40;;;;;;;;;;5036919;28;20285;-68
2021/01/16 14:15:51;;;;;;;13.30;8.43;;;;;;;;;;5038939;28;20177;-68
2021/01/16 14:18:23;;;;;;;13.60;8.63;;;;;;;;;;5035794;28;20660;-67
2021/01/16 14:20:49;;;;;;;13.47;8.00;;;;;;;;;;5040700;28;20185;-68
2021/01/16 14:23:25;;;;;;;13.67;8.00;;;;;;;;;;5036366;28;20215;-70
2021/01/16 14:25:50;;;;;;;17.57;9.67;;;;;;;;;;5041788;28;20181;-67
2021/01/16 14:28:24;;;;;;;14.40;9.77;;;;;;;;;;5034083;28;20554;-67